Time,TemperatureF,DewpointF,PressureIn,WindDirection,WindDirectionDegrees,WindSpeedMPH,WindSpeedGustMPH,Humidity,HourlyPrecipIn,Conditions,Clouds,dailyrainin,SoftwareType,DateUTC
2013-02-22 00:42:00,26.0,17.0,-100.00,NNE,32,4.0,9.0,69,0.00,,,-99.99,,2013-02-22 07:42:00,
2013-02-22 00:52:00,26.0,17.0,-100.00,NNE,32,4.0,9.0,69,0.00,,,-99.99,,2013-02-22 07:52:00,
2013-02-22 01:01:00,26.0,17.0,-100.00,NNE,32,4.0,9.0,69,0.00,,,-99.99,,2013-02-22 08:01:00,
2013-02-22 01:11:00,26.0,17.0,-100.00,NNE,32,4.0,9.0,69,0.00,,,-99.99,,2013-02-22 08:11:00,
2013-02-22 01:41:00,25.0,18.0,-100.00,North,7,3.0,5.0,73,0.00,,,-99.99,,2013-02-22 08:41:00,
2013-02-22 01:52:00,25.0,18.0,-100.00,North,7,3.0,5.0,73,0.00,,,-99.99,,2013-02-22 08:52:00,
2013-02-22 02:03:00,25.0,18.0,-100.00,North,7,3.0,5.0,73,0.00,,,-99.99,,2013-02-22 09:03:00,
2013-02-22 02:11:00,25.0,18.0,-100.00,North,7,3.0,5.0,73,0.00,,,-99.99,,2013-02-22 09:11:00,
2013-02-22 02:41:00,26.0,18.0,-100.00,NE,43,4.0,7.0,74,0.01,,,0.00,,2013-02-22 09:41:00,
2013-02-22 02:52:00,26.0,18.0,-100.00,NE,43,4.0,7.0,74,0.01,,,0.00,,2013-02-22 09:52:00,
2013-02-22 03:01:00,26.0,18.0,-100.00,NE,43,4.0,7.0,74,0.01,,,0.00,,2013-02-22 10:01:00,
2013-02-22 03:11:00,26.0,18.0,-100.00,NE,43,4.0,7.0,74,0.01,,,0.00,,2013-02-22 10:11:00,
2013-02-22 03:42:00,25.0,19.0,-100.00,NE,40,3.0,8.0,79,0.00,,,0.00,,2013-02-22 10:42:00,
2013-02-22 03:52:00,25.0,19.0,-100.00,NE,40,3.0,8.0,79,0.00,,,0.00,,2013-02-22 10:52:00,
2013-02-22 04:01:00,25.0,19.0,-100.00,NE,40,3.0,8.0,79,0.00,,,0.00,,2013-02-22 11:01:00,
2013-02-22 04:11:00,25.0,19.0,-100.00,NE,40,3.0,8.0,79,0.00,,,0.00,,2013-02-22 11:11:00,
2013-02-22 04:42:00,24.0,19.0,-100.00,SW,225,2.0,4.0,81,0.00,,,0.00,,2013-02-22 11:42:00,
2013-02-22 04:52:00,24.0,19.0,-100.00,SW,225,2.0,4.0,81,0.00,,,0.00,,2013-02-22 11:52:00,
2013-02-22 05:02:00,24.0,19.0,-100.00,SW,225,2.0,4.0,81,0.00,,,0.00,,2013-02-22 12:02:00,
2013-02-22 05:11:00,24.0,19.0,-100.00,SW,225,2.0,4.0,81,0.00,,,0.00,,2013-02-22 12:11:00,
2013-02-22 05:42:00,23.0,19.0,-100.00,SE,127,0.0,2.0,83,0.00,,,0.00,,2013-02-22 12:42:00,
2013-02-22 05:52:00,23.0,19.0,-100.00,SE,127,0.0,2.0,83,0.00,,,0.00,,2013-02-22 12:52:00,
2013-02-22 06:01:00,23.0,19.0,-100.00,SE,127,0.0,2.0,83,0.00,,,0.00,,2013-02-22 13:01:00,
2013-02-22 06:11:00,23.0,19.0,-100.00,SE,127,0.0,2.0,83,0.00,,,0.00,,2013-02-22 13:11:00,
2013-02-22 06:42:00,23.0,19.0,-100.00,SE,132,1.0,4.0,82,0.00,,,0.00,,2013-02-22 13:42:00,
2013-02-22 06:52:00,23.0,19.0,-100.00,SE,132,1.0,4.0,82,0.00,,,0.00,,2013-02-22 13:52:00,
2013-02-22 07:01:00,23.0,19.0,-100.00,SE,132,1.0,4.0,82,0.00,,,0.00,,2013-02-22 14:01:00,
2013-02-22 07:11:00,23.0,19.0,-100.00,SE,132,1.0,4.0,82,0.00,,,0.00,,2013-02-22 14:11:00,
2013-02-22 07:42:00,23.0,18.0,-100.00,NE,36,1.0,4.0,81,0.00,,,0.01,,2013-02-22 14:42:00,
2013-02-22 07:53:00,23.0,18.0,-100.00,NE,36,1.0,4.0,81,0.00,,,0.01,,2013-02-22 14:53:00,
2013-02-22 08:01:00,23.0,18.0,-100.00,NE,36,1.0,4.0,81,0.00,,,0.01,,2013-02-22 15:01:00,
2013-02-22 08:11:00,23.0,18.0,-100.00,NE,36,1.0,4.0,81,0.00,,,0.01,,2013-02-22 15:11:00,
2013-02-22 08:41:00,27.0,15.0,-100.00,SSW,204,7.0,12.0,61,0.00,,,-99.99,,2013-02-22 15:41:00,
2013-02-22 08:52:00,27.0,15.0,-100.00,SSW,204,7.0,12.0,61,0.00,,,-99.99,,2013-02-22 15:52:00,
2013-02-22 09:01:00,27.0,15.0,-100.00,SSW,204,7.0,12.0,61,0.00,,,-99.99,,2013-02-22 16:01:00,
2013-02-22 09:11:00,27.0,15.0,-100.00,SSW,204,7.0,12.0,61,0.00,,,-99.99,,2013-02-22 16:11:00,
2013-02-22 09:42:00,32.0,14.0,-100.00,SSW,197,14.0,21.0,48,0.00,,,0.00,,2013-02-22 16:42:00,
2013-02-22 09:52:00,32.0,14.0,-100.00,SSW,197,14.0,21.0,48,0.00,,,0.00,,2013-02-22 16:52:00,
2013-02-22 10:01:00,32.0,14.0,-100.00,SSW,197,14.0,21.0,48,0.00,,,0.00,,2013-02-22 17:01:00,
2013-02-22 10:11:00,32.0,14.0,-100.00,SSW,197,14.0,21.0,48,0.00,,,0.00,,2013-02-22 17:11:00,
2013-02-22 10:42:00,34.0,14.0,-100.00,South,184,17.0,24.0,45,-99.99,,,-99.99,,2013-02-22 17:42:00,
2013-02-22 10:52:00,34.0,14.0,-100.00,South,184,17.0,24.0,45,-99.99,,,-99.99,,2013-02-22 17:52:00,
2013-02-22 11:01:00,34.0,14.0,-100.00,South,184,17.0,24.0,45,-99.99,,,-99.99,,2013-02-22 18:01:00,
2013-02-22 11:11:00,34.0,14.0,-100.00,South,184,17.0,24.0,45,-99.99,,,-99.99,,2013-02-22 18:11:00,
2013-02-22 11:52:00,36.0,12.0,-100.00,SW,226,14.0,23.0,36,0.00,,,-99.99,,2013-02-22 18:52:00,
2013-02-22 12:01:00,36.0,12.0,-100.00,SW,226,14.0,23.0,36,0.00,,,-99.99,,2013-02-22 19:01:00,
2013-02-22 12:11:00,36.0,12.0,-100.00,SW,226,14.0,23.0,36,0.00,,,-99.99,,2013-02-22 19:11:00,
2013-02-22 13:11:00,38.0,13.0,-100.00,SW,219,15.0,23.0,35,0.00,,,-99.99,,2013-02-22 20:11:00,
2013-02-22 14:01:00,39.0,14.0,-100.00,SW,229,15.0,23.0,36,0.00,,,0.00,,2013-02-22 21:01:00,
2013-02-22 14:11:00,39.0,14.0,-100.00,SW,229,15.0,23.0,36,0.00,,,0.00,,2013-02-22 21:11:00,
2013-02-22 14:42:00,38.0,14.0,-100.00,SW,214,13.0,19.0,38,0.00,,,0.00,,2013-02-22 21:42:00,
2013-02-22 14:52:00,38.0,14.0,-100.00,SW,214,13.0,19.0,38,0.00,,,0.00,,2013-02-22 21:52:00,
2013-02-22 15:01:00,38.0,14.0,-100.00,SW,214,13.0,19.0,38,0.00,,,0.00,,2013-02-22 22:01:00,
2013-02-22 15:11:00,38.0,14.0,-100.00,SW,214,13.0,19.0,38,0.00,,,0.00,,2013-02-22 22:11:00,
2013-02-22 15:41:00,40.0,15.0,-100.00,SSW,208,14.0,21.0,36,0.00,,,0.00,,2013-02-22 22:41:00,
2013-02-22 15:52:00,40.0,15.0,-100.00,SSW,208,14.0,21.0,36,0.00,,,0.00,,2013-02-22 22:52:00,
2013-02-22 16:01:00,40.0,15.0,-100.00,SSW,208,14.0,21.0,36,0.00,,,0.00,,2013-02-22 23:01:00,
2013-02-22 16:11:00,40.0,15.0,-100.00,SSW,208,14.0,21.0,36,0.00,,,0.00,,2013-02-22 23:11:00,
2013-02-22 16:41:00,39.0,15.0,-100.00,SW,217,15.0,20.0,38,0.00,,,0.00,,2013-02-22 23:41:00,
2013-02-22 16:52:00,39.0,15.0,-100.00,SW,217,15.0,20.0,38,0.00,,,0.00,,2013-02-22 23:52:00,
2013-02-22 17:01:00,39.0,15.0,-100.00,SW,217,15.0,20.0,38,0.00,,,0.00,,2013-02-23 00:01:00,
2013-02-22 17:11:00,39.0,15.0,-100.00,SW,217,15.0,20.0,38,0.00,,,0.00,,2013-02-23 00:11:00,
2013-02-22 17:41:00,39.0,17.0,-100.00,SW,216,13.0,23.0,41,0.00,,,0.00,,2013-02-23 00:41:00,
2013-02-22 17:52:00,39.0,17.0,-100.00,SW,216,13.0,23.0,41,0.00,,,0.00,,2013-02-23 00:52:00,
2013-02-22 18:01:00,39.0,17.0,-100.00,SW,216,13.0,23.0,41,0.00,,,0.00,,2013-02-23 01:01:00,
2013-02-22 18:11:00,39.0,17.0,-100.00,SW,216,13.0,23.0,41,0.00,,,0.00,,2013-02-23 01:11:00,
2013-02-22 18:41:00,35.0,18.0,-100.00,South,181,16.0,23.0,49,0.00,,,0.00,,2013-02-23 01:41:00,
2013-02-22 18:52:00,35.0,18.0,-100.00,South,181,16.0,23.0,49,0.00,,,0.00,,2013-02-23 01:52:00,
2013-02-22 19:01:00,35.0,18.0,-100.00,South,181,16.0,23.0,49,0.00,,,0.00,,2013-02-23 02:01:00,
2013-02-22 19:11:00,35.0,18.0,-100.00,South,181,16.0,23.0,49,0.00,,,0.00,,2013-02-23 02:11:00,
2013-02-22 19:41:00,34.0,18.0,-100.00,South,184,17.0,27.0,51,0.00,,,0.00,,2013-02-23 02:41:00,
2013-02-22 19:52:00,34.0,18.0,-100.00,South,184,17.0,27.0,51,0.00,,,0.00,,2013-02-23 02:52:00,
2013-02-22 20:01:00,34.0,18.0,-100.00,South,184,17.0,27.0,51,0.00,,,0.00,,2013-02-23 03:01:00,
2013-02-22 20:11:00,34.0,18.0,-100.00,South,184,17.0,27.0,51,0.00,,,0.00,,2013-02-23 03:11:00,
2013-02-22 20:41:00,35.0,19.0,-100.00,South,189,15.0,25.0,51,0.00,,,-99.99,,2013-02-23 03:41:00,
2013-02-22 20:52:00,35.0,19.0,-100.00,South,189,15.0,25.0,51,0.00,,,-99.99,,2013-02-23 03:52:00,
2013-02-22 21:01:00,35.0,19.0,-100.00,South,189,15.0,25.0,51,0.00,,,-99.99,,2013-02-23 04:01:00,
2013-02-22 21:11:00,35.0,19.0,-100.00,South,189,15.0,25.0,51,0.00,,,-99.99,,2013-02-23 04:11:00,
2013-02-22 21:41:00,35.0,21.0,-100.00,South,183,21.0,31.0,58,0.00,,,-99.99,,2013-02-23 04:41:00,
2013-02-22 21:52:00,35.0,21.0,-100.00,South,183,21.0,31.0,58,0.00,,,-99.99,,2013-02-23 04:52:00,
2013-02-22 22:02:00,35.0,21.0,-100.00,South,183,21.0,31.0,58,0.00,,,-99.99,,2013-02-23 05:02:00,
2013-02-22 22:11:00,35.0,21.0,-100.00,South,183,21.0,31.0,58,0.00,,,-99.99,,2013-02-23 05:11:00,
2013-02-22 22:41:00,34.0,22.0,-100.00,South,170,22.0,32.0,63,0.00,,,-99.99,,2013-02-23 05:41:00,
2013-02-22 22:52:00,34.0,22.0,-100.00,South,170,22.0,32.0,63,0.00,,,-99.99,,2013-02-23 05:52:00,
2013-02-22 23:01:00,34.0,22.0,-100.00,South,170,22.0,32.0,63,0.00,,,-99.99,,2013-02-23 06:01:00,
2013-02-22 23:11:00,34.0,22.0,-100.00,South,170,22.0,32.0,63,0.00,,,-99.99,,2013-02-23 06:11:00,
2013-02-22 23:41:00,33.0,23.0,-100.00,SSE,168,21.0,30.0,65,0.00,,,0.00,,2013-02-23 06:41:00,
2013-02-22 23:52:00,33.0,23.0,-100.00,SSE,168,21.0,30.0,65,0.00,,,0.00,,2013-02-23 06:52:00,